TimeCDT,TemperatureF,Dew PointF,Humidity,Sea Level PressureIn,VisibilityMPH,Wind Direction,Wind SpeedMPH,Gust SpeedMPH,PrecipitationIn,Events,Conditions,WindDirDegrees,DateUTC
12:53 AM,37.9,28.0,68,30.29,10.0,NNE,5.8,-,N/A,,Clear,20,2013-04-03 05:53:00
1:53 AM,37.9,24.1,57,30.28,10.0,NE,6.9,-,N/A,,Clear,40,2013-04-03 06:53:00
2:53 AM,37.0,24.1,59,30.28,10.0,NNE,6.9,-,N/A,,Clear,30,2013-04-03 07:53:00
3:53 AM,37.9,23.0,55,30.24,10.0,NE,9.2,-,N/A,,Clear,40,2013-04-03 08:53:00
4:53 AM,37.0,23.0,57,30.25,10.0,NE,6.9,-,N/A,,Clear,40,2013-04-03 09:53:00
5:53 AM,36.0,21.9,57,30.31,10.0,NNE,3.5,-,N/A,,Clear,30,2013-04-03 10:53:00
6:53 AM,34.0,24.1,67,30.33,10.0,NNE,4.6,-,N/A,,Clear,30,2013-04-03 11:53:00
7:53 AM,37.9,23.0,55,30.34,10.0,NNE,9.2,-,N/A,,Clear,30,2013-04-03 12:53:00
8:53 AM,41.0,26.1,55,30.32,10.0,NE,11.5,-,N/A,,Clear,40,2013-04-03 13:53:00
9:53 AM,45.0,26.1,48,30.32,10.0,NE,13.8,-,N/A,,Clear,40,2013-04-03 14:53:00
10:53 AM,48.9,24.1,38,30.33,10.0,NE,13.8,21.9,N/A,,Clear,50,2013-04-03 15:53:00
11:53 AM,51.1,23.0,33,30.31,10.0,NE,13.8,23.0,N/A,,Clear,50,2013-04-03 16:53:00
12:53 PM,52.0,23.0,32,30.29,10.0,NE,15.0,24.2,N/A,,Clear,50,2013-04-03 17:53:00
1:53 PM,52.0,24.1,34,30.29,10.0,ENE,13.8,18.4,N/A,,Clear,60,2013-04-03 18:53:00
2:53 PM,53.1,23.0,31,30.26,10.0,NE,15.0,23.0,N/A,,Clear,50,2013-04-03 19:53:00
3:53 PM,53.1,24.1,32,30.24,10.0,NE,12.7,20.7,N/A,,Clear,50,2013-04-03 20:53:00
4:53 PM,54.0,25.0,33,30.23,10.0,East,9.2,-,N/A,,Clear,80,2013-04-03 21:53:00
5:53 PM,53.1,25.0,34,30.22,10.0,East,10.4,-,N/A,,Clear,80,2013-04-03 22:53:00
6:53 PM,51.1,26.1,38,30.23,10.0,ENE,6.9,-,N/A,,Clear,70,2013-04-03 23:53:00
7:53 PM,48.9,27.0,43,30.22,9.0,ENE,6.9,-,N/A,,Clear,60,2013-04-04 00:53:00
8:53 PM,46.0,28.9,51,30.23,10.0,NNE,4.6,-,N/A,,Clear,30,2013-04-04 01:53:00
9:53 PM,46.0,28.9,51,30.22,10.0,NE,6.9,-,N/A,,Clear,40,2013-04-04 02:53:00
10:53 PM,45.0,28.0,52,30.21,10.0,NE,6.9,-,N/A,,Clear,40,2013-04-04 03:53:00
11:53 PM,45.0,27.0,49,30.20,10.0,NNE,8.1,-,N/A,,Clear,30,2013-04-04 04:53:00